Spring Grove, Virginia
Current Conditions -  °F | °C
As of 5:03 PM on Sunday 23 Nov 2014 (Local Time) from KAKQ Reporting Station
Light Rain Light Rain  
Wind Chill: 55°   Ceiling: 4200
Heat Index: 55°   Visibility: 10mi
Dew Point: 49°   Wind: 3mph
Humidity: 80%   Direction: 70°ENE
Pressure: 30.08"   Gusts: NA
Location:  37.17°N, 76.97°W
Report Text: KAKQ 232203Z AUTO 07003KT 10SM -RA SCT023 OVC042 13/09 A3008 RMK AO2 P0000 T01280094 TSNO $
Loading
Personal Weather Stations






























Interactive Weather Map New forecast layout! Learn more

10-Day Weather Forecast

Advertisements
Track Severe Weather on mobile